This is the latest recevied weather packets stored in our database for station/object DL2RXE-13. If no packets are shown the sender has not sent any weather packets the latest 10 day(s).
| Time | Temp. | Humidity | Pressure | Rain* | Wind** | Luminosity | Snow |
|---|---|---|---|---|---|---|---|
| 1777440628 | 5° C | 64% | 1028.7 hPa | 0 mm | - | 66 W/m² | - |
| 1777437668 | 2.78° C | 72% | 1028 hPa | 0 mm | - | 28 W/m² | - |
| 1777434628 | 2.78° C | 69% | 1027.8 hPa | 0 mm | - | 3 W/m² | - |
| 1777432229 | 2.78° C | 69% | 1027.7 hPa | 0 mm | - | 0 W/m² | - |
| 1777431650 | 2.78° C | 68% | 1027.7 hPa | 0 mm | - | 0 W/m² | - |
| 1777419050 | 6.67° C | 55% | 1026.7 hPa | 0 mm | - | 0 W/m² | - |
| 1777415446 | 7.22° C | 54% | 1026.5 hPa | 0 mm | - | 0 W/m² | - |
| 1777411850 | 7.22° C | 54% | 1026.2 hPa | 0 mm | - | 0 W/m² | - |
| 1777406451 | 7.78° C | 47% | 1025.5 hPa | 0 mm | - | 0 W/m² | - |
| 1777405846 | 7.78° C | 47% | 1025.4 hPa | 0 mm | - | 0 W/m² | - |
| 1777402843 | 8.33° C | 45% | 1025.2 hPa | 0 mm | - | 0 W/m² | - |
| 1777402241 | 8.89° C | 44% | 1025.1 hPa | 0 mm | - | 0 W/m² | - |
| 1777401051 | 10° C | 40% | 1024.8 hPa | 0 mm | - | 2 W/m² | - |
| 1777393246 | 14.44° C | 30% | 1024.3 hPa | 0 mm | - | 163 W/m² | - |
| 1777391441 | 14.44° C | 31% | 1024.2 hPa | 0 mm | - | 252 W/m² | - |
| 1777390842 | 14.44° C | 29% | 1024.3 hPa | 0 mm | - | 271 W/m² | - |
| 1777383041 | 15° C | 31% | 1024.8 hPa | 0 mm | - | 526 W/m² | - |
| 1777378261 | 14.44° C | 31% | 1025.3 hPa | 0 mm | - | 588 W/m² | - |
| 1777377644 | 14.44° C | 34% | 1025.4 hPa | 0 mm | - | 599 W/m² | - |
| 1777369243 | 12.78° C | 38% | 1025.7 hPa | 0 mm | - | 605 W/m² | - |
| 1777362646 | 10° C | 48% | 1025.5 hPa | 0 mm | - | 345 W/m² | - |
| 1777361448 | 9.44° C | 50% | 1025.4 hPa | 0 mm | - | 305 W/m² | - |
| 1777353028 | 5° C | 63% | 1024.7 hPa | 0 mm | - | 46 W/m² | - |
| 1777350628 | 3.33° C | 67% | 1024.4 hPa | 0 mm | - | 16 W/m² | - |
| 1777346449 | 3.89° C | 67% | 1024 hPa | 0 mm | - | 0 W/m² | - |
* Rain latest hour (hover to see other rain measurements)
** Current wind speed in m/s (hover to see current wind gust speed)